Terminal Aerodrome Forecast
Issued by NWS

Current Version | Previous Version | Graphics & Text | Print | Product List | Glossary On
Versions: 1 2 3 4 5 6 7 8 9 10 11 12 13 14 15 16 17 18 19 20 21 22 23 24
000
FTUS41 KRLX 211800 AAA
TAFCKB
TAF AMD
KCKB 211831Z 2119/2218 28007KT P6SM -SHRA OVC015
      TEMPO 2119/2122 2SM SHRA BR BKN008
     FM212300 29008KT P6SM OVC020
     FM220400 30009KT P6SM OVC018
     FM221600 34011G17KT P6SM OVC020=

USA.gov is the U.S. government's official web portal to all federal, state and local government web resources and services.